Terminal Aerodrome Forecast
Issued by NWS Corpus Christi, TX

Home | Current Version | Previous Version | Text Only | Print | Product List | Glossary On
Versions: 1 2 3 4 5 6 7 8 9 10 11 12 13 14
000
FTUS44 KCRP 281100
TAFVCT
TAF
KVCT 281133Z 2812/2912 21003KT 4SM BR FEW015
      TEMPO 2812/2813 2SM BR SCT012
     FM281400 VRB06KT P6SM FEW025
     FM282000 17012KT P6SM FEW035
     FM290200 VRB05KT P6SM SKC
     FM291000 VRB02KT 5SM BR SKC=

USA.gov is the U.S. government's official web portal to all federal, state and local government web resources and services.